createdAt,value
2016-05-16T00:00:07.584Z,10.74
2016-05-16T00:01:07.181Z,10.62
2016-05-16T00:02:07.184Z,10.7
2016-05-16T00:03:07.264Z,10.76
2016-05-16T00:04:07.142Z,10.63
2016-05-16T00:05:07.378Z,10.71
2016-05-16T00:06:06.882Z,10.81
2016-05-16T00:07:07.415Z,10.66
2016-05-16T00:08:07.106Z,10.65
2016-05-16T00:09:07.092Z,10.7
2016-05-16T00:10:06.923Z,10.73
2016-05-16T00:11:06.832Z,10.65
2016-05-16T00:12:06.882Z,10.68
2016-05-16T00:13:06.917Z,10.76
2016-05-16T00:14:07.028Z,10.77
2016-05-16T00:15:06.969Z,10.76
2016-05-16T00:16:06.814Z,10.78
2016-05-16T00:17:06.802Z,10.88
2016-05-16T00:18:06.726Z,10.8
2016-05-16T00:19:06.760Z,10.77
2016-05-16T00:20:06.669Z,10.81
2016-05-16T00:21:06.657Z,10.8
2016-05-16T00:22:06.627Z,10.86
2016-05-16T00:23:06.646Z,10.83
2016-05-16T00:24:06.633Z,10.89
2016-05-16T00:25:06.949Z,10.84
2016-05-16T00:26:06.576Z,10.88
2016-05-16T00:27:06.548Z,10.92
2016-05-16T00:28:06.379Z,10.92
2016-05-16T00:29:06.662Z,10.89
2016-05-16T00:30:07.165Z,10.92
2016-05-16T00:31:06.401Z,10.84
2016-05-16T00:32:07.812Z,10.94
2016-05-16T00:33:06.704Z,10.98
2016-05-16T00:34:06.676Z,10.98
2016-05-16T00:35:06.381Z,10.95
2016-05-16T00:36:06.290Z,10.96
2016-05-16T00:37:07.059Z,10.94
2016-05-16T00:38:06.827Z,11.02
2016-05-16T00:39:06.173Z,10.99
2016-05-16T00:40:06.114Z,11.02
2016-05-16T00:41:06.554Z,11.01
2016-05-16T00:42:06.041Z,11.06
2016-05-16T00:43:05.919Z,10.96
2016-05-16T00:44:06.686Z,11.01
2016-05-16T00:45:06.064Z,10.98
2016-05-16T00:46:06.083Z,11.02
2016-05-16T00:47:06.664Z,11.01
2016-05-16T00:48:06.525Z,10.96
2016-05-16T00:49:05.935Z,11.03
2016-05-16T00:50:06.938Z,11.06
2016-05-16T00:51:05.752Z,11.03
2016-05-16T00:52:06.240Z,11.06
2016-05-16T00:53:06.024Z,10.99
2016-05-16T00:54:05.761Z,11.09
2016-05-16T00:55:06.310Z,11.02
2016-05-16T00:56:05.829Z,11.09
2016-05-16T00:57:06.644Z,11.1
2016-05-16T00:58:05.928Z,11.1
2016-05-16T00:59:05.976Z,11.1
2016-05-16T01:00:05.698Z,11.02
2016-05-16T01:01:05.701Z,11.09
2016-05-16T01:02:05.704Z,11.02
2016-05-16T01:03:06.082Z,11.06
2016-05-16T01:04:05.865Z,11.07
2016-05-16T01:05:05.931Z,11.02
2016-05-16T01:06:05.839Z,11.09
2016-05-16T01:07:05.656Z,11.1
2016-05-16T01:08:05.468Z,11.02
2016-05-16T01:09:05.736Z,11.02
2016-05-16T01:10:05.835Z,11.03
2016-05-16T01:11:06.181Z,11.06
2016-05-16T01:12:05.416Z,11.06
2016-05-16T01:13:05.200Z,11.03
2016-05-16T01:14:05.781Z,10.98
2016-05-16T01:15:05.331Z,11.03
2016-05-16T01:16:05.317Z,11.06
2016-05-16T01:17:05.507Z,11.1
2016-05-16T01:18:05.228Z,11.1
2016-05-16T01:19:05.372Z,11.09
2016-05-16T01:20:05.156Z,11.07
2016-05-16T01:21:05.409Z,11.03
2016-05-16T01:22:05.177Z,10.98
2016-05-16T01:23:04.835Z,11.03
2016-05-16T01:24:05.042Z,11.09
2016-05-16T01:25:05.045Z,11.13
2016-05-16T01:26:05.016Z,11.11
2016-05-16T01:27:04.815Z,11.09
2016-05-16T01:28:04.991Z,11.09
2016-05-16T01:29:04.945Z,11.1
2016-05-16T01:30:05.355Z,11.09
2016-05-16T01:31:05.592Z,11.07
2016-05-16T01:32:05.204Z,11.07
2016-05-16T01:33:04.848Z,11.1
2016-05-16T01:34:04.679Z,11.07
2016-05-16T01:35:05.259Z,11.03
2016-05-16T01:36:04.605Z,11.01
2016-05-16T01:37:05.139Z,11.07
2016-05-16T01:38:05.408Z,11.07
2016-05-16T01:39:04.754Z,11.03
2016-05-16T01:40:04.662Z,11.07
2016-05-16T01:41:04.651Z,11.09
2016-05-16T01:42:04.262Z,11.06
2016-05-16T01:43:04.436Z,11.02
2016-05-16T01:44:04.565Z,11.03
2016-05-16T01:45:04.708Z,11.06
2016-05-16T01:46:04.507Z,11.06
2016-05-16T01:47:05.057Z,11.06
2016-05-16T01:48:04.497Z,11.03
2016-05-16T01:49:04.436Z,11.1
2016-05-16T01:50:04.612Z,11.11
2016-05-16T01:51:04.442Z,11.09
2016-05-16T01:52:05.132Z,11.01
2016-05-16T01:53:04.394Z,11.02
2016-05-16T01:54:04.437Z,11.01
2016-05-16T01:55:04.417Z,11.02
2016-05-16T01:56:04.508Z,11.07
2016-05-16T01:57:05.421Z,11.06
2016-05-16T01:58:04.735Z,11.03
2016-05-16T01:59:04.769Z,11.07
2016-05-16T02:00:04.270Z,11.01
2016-05-16T02:01:04.475Z,11.01
2016-05-16T02:02:04.422Z,11.02
2016-05-16T02:03:04.416Z,10.99
2016-05-16T02:04:04.689Z,11.03
2016-05-16T02:05:04.385Z,11.01
2016-05-16T02:06:04.315Z,11.09
2016-05-16T02:07:04.304Z,10.98
2016-05-16T02:08:04.372Z,11.09
2016-05-16T02:09:04.251Z,10.99
2016-05-16T02:10:04.256Z,11.07
2016-05-16T02:11:04.667Z,11.06
2016-05-16T02:12:04.358Z,10.96
2016-05-16T02:13:04.127Z,10.95
2016-05-16T02:14:04.130Z,10.88
2016-05-16T02:15:04.525Z,10.86
2016-05-16T02:16:03.918Z,10.86
2016-05-16T02:17:04.218Z,10.89
2016-05-16T02:18:04.533Z,10.86
2016-05-16T02:19:03.943Z,10.88
2016-05-16T02:20:04.023Z,10.92
2016-05-16T02:21:03.947Z,10.81
2016-05-16T02:22:03.888Z,10.92
2016-05-16T02:23:03.718Z,10.88
2016-05-16T02:24:03.877Z,10.94
2016-05-16T02:25:03.881Z,10.88
2016-05-16T02:26:03.851Z,10.92
2016-05-16T02:27:03.776Z,10.92
2016-05-16T02:28:03.747Z,10.92
2016-05-16T02:29:04.203Z,10.92
2016-05-16T02:30:04.144Z,10.81
2016-05-16T02:31:03.944Z,10.89
2016-05-16T02:32:03.758Z,10.96
2016-05-16T02:33:03.480Z,10.92
2016-05-16T02:34:03.482Z,10.88
2016-05-16T02:35:03.673Z,10.88
2016-05-16T02:36:03.769Z,10.84
2016-05-16T02:37:03.600Z,10.95
2016-05-16T02:38:03.712Z,10.88
2016-05-16T02:39:03.480Z,10.99
2016-05-16T02:40:03.483Z,10.92
2016-05-16T02:41:03.971Z,10.99
2016-05-16T02:42:03.519Z,10.98
2016-05-16T02:43:03.412Z,10.95
2016-05-16T02:44:03.337Z,10.95
2016-05-16T02:45:03.324Z,10.88
2016-05-16T02:46:03.327Z,10.95
2016-05-16T02:47:03.454Z,10.83
2016-05-16T02:48:03.271Z,10.89
2016-05-16T02:49:03.132Z,10.89
2016-05-16T02:50:04.354Z,10.92
2016-05-16T02:51:03.231Z,10.88
2016-05-16T02:52:03.125Z,10.94
2016-05-16T02:53:03.720Z,10.89
2016-05-16T02:54:03.084Z,10.95
2016-05-16T02:55:03.086Z,10.92
2016-05-16T02:56:03.073Z,10.86
2016-05-16T02:57:03.075Z,10.88
2016-05-16T02:58:03.000Z,10.84
2016-05-16T02:59:02.987Z,10.88
2016-05-16T03:00:03.147Z,10.91
2016-05-16T03:01:03.070Z,10.91
2016-05-16T03:02:04.292Z,10.92
2016-05-16T03:03:02.936Z,10.81
2016-05-16T03:04:03.641Z,10.81
2016-05-16T03:05:02.878Z,10.8
2016-05-16T03:06:02.787Z,10.88
2016-05-16T03:07:03.680Z,10.92
2016-05-16T03:08:02.683Z,10.91
2016-05-16T03:09:03.108Z,10.89
2016-05-16T03:10:02.626Z,10.88
2016-05-16T03:11:02.926Z,10.92
2016-05-16T03:12:02.913Z,10.88
2016-05-16T03:13:02.619Z,10.94
2016-05-16T03:14:02.621Z,10.94
2016-05-16T03:15:03.093Z,10.92
2016-05-16T03:16:02.532Z,10.86
2016-05-16T03:17:02.207Z,10.89
2016-05-16T03:18:02.507Z,10.88
2016-05-16T03:19:02.307Z,10.83
2016-05-16T03:20:02.590Z,10.88
2016-05-16T03:21:02.468Z,10.89
2016-05-16T03:22:02.424Z,10.8
2016-05-16T03:23:02.348Z,10.86
2016-05-16T03:24:02.726Z,10.88
2016-05-16T03:25:02.339Z,10.91
2016-05-16T03:26:02.592Z,10.86
2016-05-16T03:27:02.656Z,10.84
2016-05-16T03:28:02.456Z,10.84
2016-05-16T03:29:02.755Z,10.78
2016-05-16T03:30:02.195Z,10.83
2016-05-16T03:31:02.870Z,10.84
2016-05-16T03:32:02.248Z,10.84
2016-05-16T03:33:02.438Z,10.88
2016-05-16T03:34:02.769Z,10.8
2016-05-16T03:35:03.069Z,10.84
2016-05-16T03:36:02.586Z,10.88
2016-05-16T03:37:02.121Z,10.89
2016-05-16T03:38:02.045Z,10.86
2016-05-16T03:39:02.297Z,10.8
2016-05-16T03:40:01.816Z,10.84
2016-05-16T03:41:03.303Z,10.86
2016-05-16T03:42:01.930Z,10.71
2016-05-16T03:43:01.871Z,10.78
2016-05-16T03:44:01.811Z,10.73
2016-05-16T03:45:01.830Z,10.74
2016-05-16T03:46:02.035Z,10.88
2016-05-16T03:47:01.741Z,10.88
2016-05-16T03:48:01.666Z,10.88
2016-05-16T03:49:01.824Z,10.88
2016-05-16T03:50:01.874Z,10.86
2016-05-16T03:51:01.799Z,10.88
2016-05-16T03:52:01.770Z,10.81
2016-05-16T03:53:01.664Z,10.84
2016-05-16T03:54:01.651Z,10.88
2016-05-16T03:55:02.090Z,10.89
2016-05-16T03:56:01.484Z,10.86
2016-05-16T03:57:01.550Z,10.88
2016-05-16T03:58:01.631Z,10.92
2016-05-16T03:59:01.539Z,10.89
2016-05-16T04:00:01.448Z,10.89
2016-05-16T04:01:01.263Z,10.89
2016-05-16T04:02:01.391Z,10.95
2016-05-16T04:03:01.409Z,10.91
2016-05-16T04:04:01.365Z,10.91
2016-05-16T04:05:01.227Z,10.86
2016-05-16T04:06:01.339Z,10.94
2016-05-16T04:07:01.811Z,10.89
2016-05-16T04:08:01.173Z,10.91
2016-05-16T04:09:01.378Z,10.95
2016-05-16T04:10:01.194Z,10.92
2016-05-16T04:11:00.274Z,10.95
2016-05-16T04:12:01.558Z,10.96
2016-05-16T04:13:01.077Z,11.01
2016-05-16T04:14:01.063Z,11.01
2016-05-16T04:15:01.410Z,11.03
2016-05-16T04:16:01.054Z,10.94
2016-05-16T04:17:01.025Z,11.06
2016-05-16T04:18:01.387Z,11.01
2016-05-16T04:19:00.937Z,10.99
2016-05-16T04:20:01.017Z,11.02
2016-05-16T04:21:01.004Z,10.96
2016-05-16T04:22:00.976Z,10.98
2016-05-16T04:23:00.854Z,11.02
2016-05-16T04:24:00.840Z,11.01
2016-05-16T04:25:00.828Z,10.99
2016-05-16T04:26:00.659Z,11.06
2016-05-16T04:27:00.755Z,11.09
2016-05-16T04:28:00.804Z,11.11
2016-05-16T04:29:00.745Z,11.1
2016-05-16T04:30:00.685Z,11.06
2016-05-16T04:31:00.703Z,11.03
2016-05-16T04:32:00.675Z,11.03
2016-05-16T04:33:00.708Z,11.1
2016-05-16T04:34:00.539Z,11.06
2016-05-16T04:35:00.527Z,11.11
2016-05-16T04:36:00.405Z,11.09
2016-05-16T04:37:00.360Z,11.11
2016-05-16T04:38:00.472Z,11.11
2016-05-16T04:39:01.819Z,11.16
2016-05-16T04:40:00.462Z,11.11
2016-05-16T04:41:00.636Z,11.1
2016-05-16T04:42:00.374Z,11.09
2016-05-16T04:43:00.299Z,11.06
2016-05-16T04:44:00.566Z,11.16
2016-05-16T04:45:00.600Z,11.1
2016-05-16T04:46:00.165Z,11.03
2016-05-16T04:47:01.340Z,11.07
2016-05-16T04:48:00.546Z,11.06
2016-05-16T04:49:00.299Z,11.1
2016-05-16T04:50:00.160Z,11.1
2016-05-16T04:51:00.320Z,11.02
2016-05-16T04:52:00.134Z,11.02
2016-05-16T04:52:59.935Z,11.06
2016-05-16T04:54:00.578Z,10.98
2016-05-16T04:55:00.174Z,11.06
2016-05-16T04:56:00.129Z,11.1
2016-05-16T04:57:00.007Z,11.07
2016-05-16T04:57:59.792Z,11.01
2016-05-16T04:58:59.981Z,11.03
2016-05-16T04:59:59.953Z,11.1
2016-05-16T05:00:59.987Z,11.07
2016-05-16T05:02:00.443Z,11.06
2016-05-16T05:03:00.055Z,11.09
2016-05-16T05:04:00.089Z,11.09
2016-05-16T05:05:00.247Z,11.1
2016-05-16T05:06:00.266Z,11.11
2016-05-16T05:07:00.206Z,11.11
2016-05-16T05:07:59.850Z,11.11
2016-05-16T05:08:59.711Z,11.16
2016-05-16T05:10:00.214Z,11.16
2016-05-16T05:10:59.795Z,11.11
2016-05-16T05:12:00.204Z,11.16
2016-05-16T05:12:59.582Z,11.21
2016-05-16T05:13:59.616Z,11.21
2016-05-16T05:14:59.400Z,11.16
2016-05-16T05:15:59.669Z,11.28
2016-05-16T05:16:59.858Z,11.28
2016-05-16T05:17:59.517Z,11.35
2016-05-16T05:18:59.270Z,11.35
2016-05-16T05:20:00.226Z,11.31
2016-05-16T05:20:59.572Z,11.35
2016-05-16T05:21:59.465Z,11.38
2016-05-16T05:22:59.327Z,11.34
2016-05-16T05:23:59.126Z,11.35
2016-05-16T05:24:59.287Z,11.34
2016-05-16T05:25:59.289Z,11.41
2016-05-16T05:26:59.260Z,11.34
2016-05-16T05:27:59.012Z,11.35
2016-05-16T05:28:59.218Z,11.44
2016-05-16T05:29:59.175Z,11.35
2016-05-16T05:30:58.942Z,11.44
2016-05-16T05:31:59.523Z,11.39
2016-05-16T05:32:59.448Z,11.39
2016-05-16T05:33:59.248Z,11.38
2016-05-16T05:34:59.064Z,11.44
2016-05-16T05:35:59.269Z,11.47
2016-05-16T05:36:59.021Z,11.46
2016-05-16T05:37:59.212Z,11.5
2016-05-16T05:38:58.980Z,11.44
2016-05-16T05:39:59.077Z,11.49
2016-05-16T05:40:58.922Z,11.44
2016-05-16T05:41:58.847Z,11.47
2016-05-16T05:42:58.865Z,11.47
2016-05-16T05:43:58.853Z,11.49
2016-05-16T05:44:58.761Z,11.5
2016-05-16T05:45:58.577Z,11.49
2016-05-16T05:46:58.891Z,11.52
2016-05-16T05:47:58.708Z,11.52
2016-05-16T05:48:58.928Z,11.62
2016-05-16T05:49:58.744Z,11.61
2016-05-16T05:50:58.543Z,11.59
2016-05-16T05:51:58.437Z,11.53
2016-05-16T05:52:58.595Z,11.64
2016-05-16T05:53:58.646Z,11.53
2016-05-16T05:54:58.538Z,11.54
2016-05-16T05:55:58.432Z,11.56
2016-05-16T05:56:58.513Z,11.5
2016-05-16T05:57:58.421Z,11.53
2016-05-16T05:58:58.331Z,11.53
2016-05-16T05:59:58.567Z,11.49
2016-05-16T06:00:58.804Z,11.53
2016-05-16T06:02:01.682Z,11.49
2016-05-16T06:02:58.435Z,11.54
2016-05-16T06:03:58.172Z,11.52
2016-05-16T06:04:59.144Z,11.54
2016-05-16T06:05:59.068Z,11.67
2016-05-16T06:06:58.352Z,11.59
2016-05-16T06:07:58.167Z,11.7
2016-05-16T06:08:58.186Z,11.7
2016-05-16T06:09:57.969Z,11.65
2016-05-16T06:10:58.269Z,11.64
2016-05-16T06:11:57.990Z,11.7
2016-05-16T06:12:58.134Z,11.8
2016-05-16T06:13:58.027Z,11.83
2016-05-16T06:14:57.905Z,11.86
2016-05-16T06:15:57.860Z,11.85
2016-05-16T06:16:57.972Z,11.99
2016-05-16T06:17:57.928Z,12.02
2016-05-16T06:18:57.759Z,12.05
2016-05-16T06:19:57.466Z,12.13
2016-05-16T06:20:57.905Z,12.16
2016-05-16T06:21:57.846Z,12.19
2016-05-16T06:22:59.020Z,12.24
2016-05-16T06:23:57.820Z,12.19
2016-05-16T06:24:57.791Z,12.38
2016-05-16T06:25:57.762Z,12.42
2016-05-16T06:26:57.765Z,12.48
2016-05-16T06:27:59.784Z,12.46
2016-05-16T06:28:57.926Z,12.51
2016-05-16T06:29:57.648Z,12.56
2016-05-16T06:30:57.589Z,12.48
2016-05-16T06:31:57.653Z,12.49
2016-05-16T06:32:58.407Z,12.45
2016-05-16T06:33:57.549Z,12.45
2016-05-16T06:34:57.506Z,12.59
2016-05-16T06:35:57.618Z,12.48
2016-05-16T06:36:57.995Z,12.49
2016-05-16T06:37:57.467Z,12.56
2016-05-16T06:38:57.406Z,12.54
2016-05-16T06:39:57.456Z,12.46
2016-05-16T06:40:57.241Z,12.56
2016-05-16T06:41:57.415Z,12.48
2016-05-16T06:42:57.996Z,12.59
2016-05-16T06:43:57.342Z,12.57
2016-05-16T06:44:56.969Z,12.57
2016-05-16T06:45:57.050Z,12.59
2016-05-16T06:46:57.350Z,12.54
2016-05-16T06:47:57.228Z,12.52
2016-05-16T06:48:57.153Z,12.63
2016-05-16T06:49:56.999Z,12.69
2016-05-16T06:50:57.236Z,12.63
2016-05-16T06:51:57.083Z,12.71
2016-05-16T06:52:57.085Z,12.75
2016-05-16T06:53:57.119Z,12.77
2016-05-16T06:54:56.965Z,12.75
2016-05-16T06:55:57.015Z,12.82
2016-05-16T06:56:57.049Z,12.87
2016-05-16T06:57:57.802Z,12.88
2016-05-16T06:58:56.851Z,12.88
2016-05-16T06:59:56.932Z,12.95
2016-05-16T07:00:57.215Z,12.97
2016-05-16T07:01:56.953Z,12.95
2016-05-16T07:02:57.253Z,12.96
2016-05-16T07:03:56.583Z,12.87
2016-05-16T07:04:56.837Z,12.97
2016-05-16T07:05:56.698Z,12.93
2016-05-16T07:06:56.810Z,12.95
2016-05-16T07:07:57.876Z,12.99
2016-05-16T07:08:56.737Z,12.89
2016-05-16T07:09:56.631Z,12.93
2016-05-16T07:10:56.633Z,12.97
2016-05-16T07:11:56.870Z,12.85
2016-05-16T07:12:56.592Z,12.88
2016-05-16T07:13:57.205Z,12.92
2016-05-16T07:14:56.628Z,12.87
2016-05-16T07:15:56.569Z,12.87
2016-05-16T07:16:56.509Z,12.88
2016-05-16T07:17:58.855Z,12.97
2016-05-16T07:18:56.468Z,12.89
2016-05-16T07:19:56.454Z,12.82
2016-05-16T07:20:56.519Z,12.81
2016-05-16T07:21:56.710Z,12.77
2016-05-16T07:22:56.369Z,12.78
2016-05-16T07:23:56.357Z,12.75
2016-05-16T07:24:56.312Z,12.75
2016-05-16T07:25:56.330Z,12.71
2016-05-16T07:26:56.301Z,12.77
2016-05-16T07:27:56.273Z,12.77
2016-05-16T07:28:56.245Z,12.81
2016-05-16T07:29:56.278Z,12.92
2016-05-16T07:30:56.641Z,13
2016-05-16T07:31:56.268Z,12.89
2016-05-16T07:32:56.192Z,12.95
2016-05-16T07:33:55.961Z,12.99
2016-05-16T07:34:56.182Z,12.89
2016-05-16T07:35:56.545Z,13
2016-05-16T07:36:56.031Z,12.96
2016-05-16T07:37:55.940Z,13.02
2016-05-16T07:38:56.022Z,12.96
2016-05-16T07:39:55.900Z,12.88
2016-05-16T07:40:55.746Z,12.92
2016-05-16T07:41:56.107Z,12.97
2016-05-16T07:42:56.017Z,12.84
2016-05-16T07:43:59.425Z,12.85
2016-05-16T07:44:55.850Z,12.84
2016-05-16T07:46:55.871Z,12.85
2016-05-16T07:47:55.920Z,12.89
2016-05-16T07:48:55.610Z,12.92
2016-05-16T07:49:55.723Z,13
2016-05-16T07:50:55.632Z,12.88
2016-05-16T07:51:55.713Z,12.96
2016-05-16T07:52:55.762Z,12.93
2016-05-16T07:53:55.483Z,12.96
2016-05-16T07:54:55.518Z,12.92
2016-05-16T07:55:55.488Z,12.87
2016-05-16T07:56:55.398Z,12.95
2016-05-16T07:57:55.650Z,12.88
2016-05-16T07:58:55.466Z,12.88
2016-05-16T07:59:55.532Z,12.99
2016-05-16T08:00:55.471Z,12.97
2016-05-16T08:01:55.318Z,12.89
2016-05-16T08:02:55.351Z,12.81
2016-05-16T08:03:55.370Z,12.97
2016-05-16T08:04:55.887Z,12.99
2016-05-16T08:05:56.312Z,13.07
2016-05-16T08:06:55.393Z,13.02
2016-05-16T08:07:55.256Z,12.99
2016-05-16T08:08:55.133Z,13.03
2016-05-16T08:09:55.276Z,13.02
2016-05-16T08:10:55.076Z,13.04
2016-05-16T08:11:56.110Z,13.07
2016-05-16T08:12:55.159Z,13.02
2016-05-16T08:13:55.693Z,13.07
2016-05-16T08:14:55.384Z,13.17
2016-05-16T08:15:55.293Z,13.21
2016-05-16T08:16:55.124Z,13.21
2016-05-16T08:17:55.111Z,13.24
2016-05-16T08:18:55.566Z,13.37
2016-05-16T08:19:54.882Z,13.36
2016-05-16T08:21:01.228Z,13.36
2016-05-16T08:21:54.918Z,13.51
2016-05-16T08:23:12.671Z,13.46
2016-05-16T08:23:55.393Z,13.47
2016-05-16T08:24:54.864Z,13.47
2016-05-16T08:25:55.585Z,13.55
2016-05-16T08:26:55.963Z,13.61
2016-05-16T08:28:08.496Z,13.56
2016-05-16T08:28:54.796Z,13.61
2016-05-16T08:29:54.798Z,13.59
2016-05-16T08:30:55.192Z,13.71
2016-05-16T08:31:55.086Z,13.76
2016-05-16T08:32:54.901Z,13.84
2016-05-16T08:33:54.638Z,13.87
2016-05-16T08:35:07.000Z,14.02
2016-05-16T08:35:55.096Z,14.1
2016-05-16T08:36:56.771Z,14.07
2016-05-16T08:37:55.445Z,14.06
2016-05-16T08:39:08.308Z,14.07
2016-05-16T08:39:54.482Z,14.02
2016-05-16T08:40:54.484Z,13.91
2016-05-16T08:41:54.519Z,13.98
2016-05-16T08:42:54.428Z,13.99
2016-05-16T08:43:54.367Z,14.06
2016-05-16T08:44:54.996Z,14.12
2016-05-16T08:45:54.607Z,14.1
2016-05-16T08:46:55.094Z,14.19
2016-05-16T08:47:54.364Z,14.29
2016-05-16T08:48:54.288Z,14.43
2016-05-16T08:50:07.947Z,14.29
2016-05-16T08:50:54.652Z,14.37
2016-05-16T08:51:54.139Z,14.34
2016-05-16T08:52:54.142Z,14.32
2016-05-16T08:53:54.613Z,14.39
2016-05-16T08:54:54.460Z,14.37
2016-05-16T08:55:57.557Z,14.46
2016-05-16T08:56:54.107Z,14.38
2016-05-16T08:57:54.124Z,14.29
2016-05-16T08:58:53.908Z,14.28
2016-05-16T08:59:54.598Z,14.35
2016-05-16T09:00:54.148Z,14.37
2016-05-16T09:01:54.228Z,14.32
2016-05-16T09:02:53.903Z,14.28
2016-05-16T09:03:53.938Z,14.29
2016-05-16T09:04:53.799Z,14.28
2016-05-16T09:05:54.131Z,14.34
2016-05-16T09:06:55.148Z,14.42
2016-05-16T09:07:54.011Z,14.42
2016-05-16T09:08:53.654Z,14.43
2016-05-16T09:09:53.891Z,14.47
2016-05-16T09:10:53.722Z,14.52
2016-05-16T09:11:56.803Z,14.65
2016-05-16T09:12:53.993Z,14.62
2016-05-16T09:13:53.620Z,14.68
2016-05-16T09:14:53.967Z,14.72
2016-05-16T09:15:53.625Z,14.69
2016-05-16T09:16:53.472Z,14.65
2016-05-16T09:17:53.630Z,14.71
2016-05-16T09:18:53.555Z,14.64
2016-05-16T09:19:53.606Z,14.61
2016-05-16T09:20:53.592Z,14.6
2016-05-16T09:21:53.658Z,14.56
2016-05-16T09:22:53.582Z,14.46
2016-05-16T09:23:53.554Z,14.5
2016-05-16T09:24:53.494Z,14.44
2016-05-16T09:25:53.747Z,14.34
2016-05-16T09:26:53.390Z,14.35
2016-05-16T09:27:53.236Z,14.35
2016-05-16T09:28:53.318Z,14.31
2016-05-16T09:29:53.241Z,14.25
2016-05-16T09:30:53.401Z,14.21
2016-05-16T09:31:53.575Z,14.16
2016-05-16T09:32:53.109Z,14.35
2016-05-16T09:33:53.268Z,14.43
2016-05-16T09:34:53.630Z,14.44
2016-05-16T09:35:53.649Z,14.5
2016-05-16T09:36:53.214Z,14.62
2016-05-16T09:37:53.154Z,14.61
2016-05-16T09:38:53.062Z,14.54
2016-05-16T09:39:53.940Z,14.54
2016-05-16T09:40:53.162Z,14.44
2016-05-16T09:41:53.102Z,14.43
2016-05-16T09:42:53.105Z,14.44
2016-05-16T09:43:53.045Z,14.37
2016-05-16T09:44:52.970Z,14.34
2016-05-16T09:45:53.269Z,14.35
2016-05-16T09:46:53.256Z,14.29
2016-05-16T09:47:52.883Z,14.25
2016-05-16T09:48:52.761Z,14.27
2016-05-16T09:49:52.764Z,14.27
2016-05-16T09:50:53.001Z,14.21
2016-05-16T09:51:53.020Z,14.17
2016-05-16T09:52:52.757Z,14.29
2016-05-16T09:53:52.556Z,14.24
2016-05-16T09:54:52.558Z,14.19
2016-05-16T09:55:52.702Z,14.17
2016-05-16T09:56:52.627Z,14.21
2016-05-16T09:57:52.677Z,14.16
2016-05-16T09:58:52.930Z,14.24
2016-05-16T09:59:52.494Z,14.21
2016-05-16T10:00:52.716Z,14.32
2016-05-16T10:01:53.656Z,14.31
2016-05-16T10:02:53.096Z,14.32
2016-05-16T10:03:52.707Z,14.24
2016-05-16T10:04:52.320Z,14.31
2016-05-16T10:05:52.323Z,14.37
2016-05-16T10:06:52.670Z,14.32
2016-05-16T10:07:53.063Z,14.31
2016-05-16T10:08:52.331Z,14.32
2016-05-16T10:09:52.678Z,14.38
2016-05-16T10:10:52.773Z,14.39
2016-05-16T10:11:55.886Z,14.52
2016-05-16T10:12:55.670Z,14.69
2016-05-16T10:13:52.657Z,14.74
2016-05-16T10:15:08.020Z,14.84
2016-05-16T10:15:52.084Z,14.99
2016-05-16T10:16:52.243Z,15.09
2016-05-16T10:17:52.730Z,15.13
2016-05-16T10:18:51.983Z,15.17
2016-05-16T10:19:52.157Z,15.19
2016-05-16T10:20:51.879Z,15.12
2016-05-16T10:21:52.335Z,15.12
2016-05-16T10:22:52.056Z,15.13
2016-05-16T10:23:52.106Z,15.17
2016-05-16T10:24:52.093Z,15.12
2016-05-16T10:25:52.049Z,15.19
2016-05-16T10:26:52.019Z,15.02
2016-05-16T10:27:51.632Z,15.08
2016-05-16T10:28:52.057Z,15.06
2016-05-16T10:29:51.872Z,15.08
2016-05-16T10:30:52.000Z,15.03
2016-05-16T10:31:51.893Z,14.99
2016-05-16T10:32:52.052Z,14.93
2016-05-16T10:33:51.913Z,14.93
2016-05-16T10:34:51.651Z,14.94
2016-05-16T10:35:51.684Z,14.87
2016-05-16T10:36:51.735Z,14.75
2016-05-16T10:37:51.612Z,14.84
2016-05-16T10:38:51.708Z,14.69
2016-05-16T10:39:51.712Z,14.75
2016-05-16T10:40:51.621Z,14.94
2016-05-16T10:41:51.795Z,15.01
2016-05-16T10:42:52.001Z,14.91
2016-05-16T10:43:51.628Z,14.9
2016-05-16T10:44:51.709Z,14.95
2016-05-16T10:45:51.492Z,15.03
2016-05-16T10:46:51.573Z,15.17
2016-05-16T10:47:51.545Z,15.33
2016-05-16T10:48:51.439Z,15.48
2016-05-16T10:49:51.410Z,15.57
2016-05-16T10:50:52.131Z,15.57
2016-05-16T10:51:51.430Z,15.6
2016-05-16T10:52:51.450Z,15.63
2016-05-16T10:53:51.202Z,15.7
2016-05-16T10:54:51.361Z,15.67
2016-05-16T10:55:51.098Z,15.67
2016-05-16T10:56:51.225Z,15.61
2016-05-16T10:57:51.253Z,15.52
2016-05-16T10:58:51.287Z,15.42
2016-05-16T10:59:51.305Z,15.33
2016-05-16T11:00:51.214Z,15.31
2016-05-16T11:01:51.388Z,15.26
2016-05-16T11:02:51.397Z,15.12
2016-05-16T11:03:51.167Z,15.12
2016-05-16T11:04:51.342Z,15.15
2016-05-16T11:05:51.206Z,15.12
2016-05-16T11:06:51.366Z,15.02
2016-05-16T11:07:51.328Z,15.12
2016-05-16T11:08:51.306Z,15.11
2016-05-16T11:09:51.236Z,15.21
2016-05-16T11:10:51.261Z,15.19
2016-05-16T11:11:51.238Z,15.19
2016-05-16T11:12:51.290Z,15.02
2016-05-16T11:13:51.263Z,15.03
2016-05-16T11:14:51.191Z,15.01
2016-05-16T11:15:51.179Z,14.95
2016-05-16T11:16:51.123Z,15.06
2016-05-16T11:17:51.157Z,15.05
2016-05-16T11:18:51.160Z,15.03
2016-05-16T11:19:51.087Z,15.12
2016-05-16T11:20:50.776Z,15.13
2016-05-16T11:21:51.359Z,15.17
2016-05-16T11:22:51.144Z,15.23
2016-05-16T11:23:50.990Z,15.3
2016-05-16T11:24:51.040Z,15.43
2016-05-16T11:25:50.933Z,15.51
2016-05-16T11:26:50.905Z,15.66
2016-05-16T11:27:51.017Z,15.66
2016-05-16T11:28:50.739Z,15.79
2016-05-16T11:29:50.850Z,15.7
2016-05-16T11:30:50.901Z,16.03
2016-05-16T11:31:50.638Z,16.11
2016-05-16T11:32:50.781Z,16.18
2016-05-16T11:33:50.565Z,16.31
2016-05-16T11:34:50.755Z,16.37
2016-05-16T11:35:51.086Z,16.27
2016-05-16T11:36:54.276Z,16.22
2016-05-16T11:37:50.482Z,16.18
2016-05-16T11:38:50.594Z,16.09
2016-05-16T11:39:50.425Z,16.09
2016-05-16T11:40:50.583Z,16
2016-05-16T11:41:50.399Z,15.97
2016-05-16T11:42:50.557Z,15.75
2016-05-16T11:43:50.638Z,15.68
2016-05-16T11:44:50.469Z,15.63
2016-05-16T11:45:50.471Z,15.6
2016-05-16T11:46:50.304Z,15.56
2016-05-16T11:47:50.431Z,15.56
2016-05-16T11:48:50.434Z,15.46
2016-05-16T11:49:50.483Z,15.43
2016-05-16T11:50:50.454Z,15.46
2016-05-16T11:51:50.207Z,15.28
2016-05-16T11:52:50.334Z,15.26
2016-05-16T11:53:50.306Z,15.24
2016-05-16T11:54:50.559Z,15.23
2016-05-16T11:55:50.296Z,15.21
2016-05-16T11:56:50.236Z,15.26
2016-05-16T11:57:50.239Z,15.36
2016-05-16T11:58:50.210Z,15.28
2016-05-16T11:59:50.135Z,15.48
2016-05-16T12:00:50.153Z,15.51
2016-05-16T12:01:50.312Z,15.68
2016-05-16T12:02:50.143Z,15.85
2016-05-16T12:03:50.145Z,16.07
2016-05-16T12:04:50.133Z,16.3
2016-05-16T12:05:50.150Z,16.22
2016-05-16T12:06:49.997Z,16.25
2016-05-16T12:07:49.985Z,16.25
2016-05-16T12:08:49.800Z,16.23
2016-05-16T12:09:49.880Z,16.41
2016-05-16T12:10:49.883Z,16.38
2016-05-16T12:11:50.402Z,16.37
2016-05-16T12:12:49.841Z,16.31
2016-05-16T12:13:49.938Z,16.34
2016-05-16T12:14:49.800Z,16.34
2016-05-16T12:15:49.819Z,16.67
2016-05-16T12:16:49.727Z,16.98
2016-05-16T12:17:49.746Z,17.04
2016-05-16T12:18:49.732Z,17.07
2016-05-16T12:19:49.735Z,17.13
2016-05-16T12:20:49.519Z,17.17
2016-05-16T12:21:49.553Z,17.28
2016-05-16T12:22:49.651Z,17.41
2016-05-16T12:23:49.559Z,17.5
2016-05-16T12:24:49.640Z,17.57
2016-05-16T12:25:49.564Z,17.7
2016-05-16T12:26:50.161Z,17.88
2016-05-16T12:27:49.914Z,17.92
2016-05-16T12:28:49.369Z,18.04
2016-05-16T12:29:49.434Z,18
2016-05-16T12:30:49.156Z,17.92
2016-05-16T12:31:49.518Z,17.94
2016-05-16T12:32:49.395Z,17.97
2016-05-16T12:33:49.305Z,18.13
2016-05-16T12:34:49.275Z,18.28
2016-05-16T12:35:49.669Z,18.15
2016-05-16T12:36:49.327Z,18.18
2016-05-16T12:37:49.316Z,18.31
2016-05-16T12:38:49.084Z,18.24
2016-05-16T12:39:49.242Z,18.29
2016-05-16T12:40:49.261Z,18.39
2016-05-16T12:41:49.341Z,18.22
2016-05-16T12:42:49.110Z,18.1
2016-05-16T12:43:49.252Z,18.04
2016-05-16T12:44:49.130Z,18.1
2016-05-16T12:45:48.993Z,18.29
2016-05-16T12:46:49.168Z,18.59
2016-05-16T12:47:49.092Z,18.54
2016-05-16T12:48:49.095Z,18.44
2016-05-16T12:49:48.910Z,18.07
2016-05-16T12:50:49.021Z,17.92
2016-05-16T12:51:48.947Z,17.7
2016-05-16T12:52:48.917Z,17.55
2016-05-16T12:53:48.984Z,17.51
2016-05-16T12:54:48.924Z,17.32